Time;durP1;ratioP1;P1;durP2;ratioP2;P2;SDS_P1;SDS_P2;PMS_P1;PMS_P2;Temp;Humidity;BMP_temperature;BMP_pressure;BME280_temperature;BME280_humidity;BME280_pressure;Samples;Min_cycle;Max_cycle;Signal;HPM_P1;HPM_P2
2022/10/15 00:00:15;;;;;;;;;;;;;;;16.89;80.59;99636.63;5008305;28;1929;-62
2022/10/15 00:02:40;;;;;;;;;;;;;;;16.91;81.43;99631.56;5028370;28;1953;-62
2022/10/15 00:05:05;;;;;;;;;;;;;;;16.92;81.45;99626.84;5002736;28;2199;-62
2022/10/15 00:07:31;;;;;;;;;;;;;;;16.92;81.36;99630.44;5003218;28;2091;-61
2022/10/15 00:09:56;;;;;;;;;;;;;;;16.91;81.40;99628.81;5013082;28;1999;-62
2022/10/15 00:12:21;;;;;;;;;;;;;;;16.91;80.94;99628.00;5023901;28;1893;-62
2022/10/15 00:14:46;;;;;;;;;;;;;;;16.89;81.98;99622.81;5014093;28;2099;-62
2022/10/15 00:17:11;;;;;;;;;;;;;;;16.89;81.97;99622.81;5012868;28;1835;-62
2022/10/15 00:19:36;;;;;;;;;;;;;;;16.90;80.96;99623.63;5015329;28;1870;-62
2022/10/15 00:22:01;;;;;;;;;;;;;;;16.91;81.28;99622.47;5020068;28;1898;-62
2022/10/15 00:24:27;;;;;;;;;;;;;;;16.89;82.06;99625.56;5019058;28;1762;-62
2022/10/15 00:26:52;;;;;;;;;;;;;;;16.89;81.21;99624.75;5012774;28;2181;-62
2022/10/15 00:29:17;;;;;;;;;;;;;;;16.89;81.13;99614.50;5009083;28;1935;-61
2022/10/15 00:31:42;;;;;;;;;;;;;;;16.90;81.72;99615.31;5023186;28;1921;-62
2022/10/15 00:34:07;;;;;;;;;;;;;;;16.91;81.90;99616.94;5025240;28;1716;-61
2022/10/15 00:36:34;;;;;;;;;;;;;;;16.91;82.24;99620.50;5010086;28;1825;-62
2022/10/15 00:38:59;;;;;;;;;;;;;;;16.91;81.96;99612.22;5011929;28;1751;-62
2022/10/15 00:41:27;;;;;;;;;;;;;;;16.91;82.29;99614.19;5016371;28;1925;-62
2022/10/15 00:43:52;;;;;;;;;;;;;;;16.90;81.83;99616.13;5013987;28;1829;-62
2022/10/15 00:46:23;;;;;;;;;;;;;;;16.90;81.63;99618.09;5011144;28;2077;-62
2022/10/15 00:48:50;;;;;;;;;;;;;;;16.89;82.19;99619.22;5016286;28;1727;-62
2022/10/15 00:51:16;;;;;;;;;;;;;;;16.87;81.56;99611.28;5021442;28;1725;-62
2022/10/15 00:53:42;;;;;;;;;;;;;;;16.89;81.58;99620.03;5016211;28;1843;-60
2022/10/15 00:56:07;;;;;;;;;;;;;;;16.88;82.39;99609.31;5007787;28;1948;-62
2022/10/15 00:58:33;;;;;;;;;;;;;;;16.88;82.01;99607.38;5008418;28;2024;-62
2022/10/15 01:00:59;;;;;;;;;;;;;;;16.88;82.27;99609.31;5019773;28;1898;-62
2022/10/15 01:03:24;;;;;;;;;;;;;;;16.88;82.18;99606.56;5022524;28;1779;-61
2022/10/15 01:05:50;;;;;;;;;;;;;;;16.88;81.86;99601.03;5004946;28;1853;-62
2022/10/15 01:08:15;;;;;;;;;;;;;;;16.86;82.32;99595.84;5015089;28;1842;-62
2022/10/15 01:10:41;;;;;;;;;;;;;;;16.87;81.96;99591.94;5021731;28;1902;-62
2022/10/15 01:13:13;;;;;;;;;;;;;;;16.86;82.01;99593.09;5010679;28;1982;-63
2022/10/15 01:15:45;;;;;;;;;;;;;;;16.86;82.66;99582.03;5017645;28;2063;-60
2022/10/15 01:18:14;;;;;;;;;;;;;;;16.86;82.38;99586.75;5005658;28;2062;-62
2022/10/15 01:20:46;;;;;;;;;;;;;;;16.85;81.97;99585.94;5019138;28;1635;-62
2022/10/15 01:23:41;;;;;;;;;;;;;;;16.87;82.27;99591.13;5012023;28;1894;-62
2022/10/15 01:26:24;;;;;;;;;;;;;;;16.85;82.24;99583.16;5001691;28;1965;-62
2022/10/15 01:29:03;;;;;;;;;;;;;;;16.85;82.21;99585.94;5014831;28;1971;-62
2022/10/15 01:31:33;;;;;;;;;;;;;;;16.85;83.14;99571.31;5024073;28;1906;-62
2022/10/15 01:33:58;;;;;;;;;;;;;;;16.85;82.63;99580.41;5020037;28;1936;-63
2022/10/15 01:36:32;;;;;;;;;;;;;;;16.86;82.83;99573.72;5004306;28;1956;-62
2022/10/15 01:39:03;;;;;;;;;;;;;;;16.87;82.13;99588.34;5017913;28;1434;-61
2022/10/15 01:41:51;;;;;;;;;;;;;;;16.87;82.34;99577.31;5022916;28;1890;-62
2022/10/15 01:44:19;;;;;;;;;;;;;;;16.86;82.90;99564.63;5017208;28;1625;-62
2022/10/15 01:46:46;;;;;;;;;;;;;;;16.85;82.47;99572.13;5002089;28;2226;-62
2022/10/15 01:49:14;;;;;;;;;;;;;;;16.86;83.17;99570.16;5018663;28;2098;-62
2022/10/15 01:51:41;;;;;;;;;;;;;;;16.86;83.00;99559.91;5020610;28;1871;-62
2022/10/15 01:54:09;;;;;;;;;;;;;;;16.86;83.20;99564.63;5011237;28;1843;-62
2022/10/15 01:56:36;;;;;;;;;;;;;;;16.86;82.90;99559.09;5000865;28;1998;-62
2022/10/15 01:59:02;;;;;;;;;;;;;;;16.85;83.15;99555.53;5020837;28;2205;-60
2022/10/15 02:01:27;;;;;;;;;;;;;;;16.85;83.29;99558.28;5024546;28;1890;-62
2022/10/15 02:03:52;;;;;;;;;;;;;;;16.85;82.67;99563.00;5001208;28;1861;-61
2022/10/15 02:06:38;;;;;;;;;;;;;;;16.85;83.44;99565.78;5010827;28;1779;-61
2022/10/15 02:09:23;;;;;;;;;;;;;;;16.85;82.70;99558.28;5009354;28;1869;-62
2022/10/15 02:11:58;;;;;;;;;;;;;;;16.86;83.42;99561.88;5023189;28;1769;-62
2022/10/15 02:14:42;;;;;;;;;;;;;;;16.85;83.19;99561.06;5022771;28;1783;-62
2022/10/15 02:17:09;;;;;;;;;;;;;;;16.86;83.08;99553.56;5006003;28;2072;-61
2022/10/15 02:19:48;;;;;;;;;;;;;;;16.85;83.14;99552.75;5011214;28;1977;-62
2022/10/15 02:22:17;;;;;;;;;;;;;;;16.85;83.68;99549.19;5015653;28;2093;-63
2022/10/15 02:24:54;;;;;;;;;;;;;;;16.84;83.96;99551.16;5026878;28;1826;-62
2022/10/15 02:27:20;;;;;;;;;;;;;;;16.85;83.39;99546.44;5006293;28;2258;-63
2022/10/15 02:29:48;;;;;;;;;;;;;;;16.85;83.97;99549.19;5009962;28;1836;-62
2022/10/15 02:32:14;;;;;;;;;;;;;;;16.85;83.36;99547.25;5019445;28;2135;-62
2022/10/15 02:34:40;;;;;;;;;;;;;;;16.85;84.02;99538.94;5021269;28;1900;-62
2022/10/15 02:37:06;;;;;;;;;;;;;;;16.86;83.90;99548.84;5007181;28;2090;-62
2022/10/15 02:39:32;;;;;;;;;;;;;;;16.87;83.28;99544.94;5018677;28;1810;-58
2022/10/15 02:41:57;;;;;;;;;;;;;;;16.87;83.51;99544.94;5022437;28;1899;-62
2022/10/15 02:44:23;;;;;;;;;;;;;;;16.87;83.54;99533.88;5018678;28;2228;-62
2022/10/15 02:46:48;;;;;;;;;;;;;;;16.87;84.10;99536.66;5015849;28;2031;-62
2022/10/15 02:49:13;;;;;;;;;;;;;;;16.87;83.37;99527.56;5018026;28;1581;-62
2022/10/15 02:51:38;;;;;;;;;;;;;;;16.86;84.35;99535.03;5024302;28;1968;-62
2022/10/15 02:54:04;;;;;;;;;;;;;;;16.87;83.58;99538.59;5023619;28;2183;-62
2022/10/15 02:56:29;;;;;;;;;;;;;;;16.88;84.03;99526.41;5012819;28;1838;-62
2022/10/15 02:58:55;;;;;;;;;;;;;;;16.89;84.03;99528.03;5018355;28;1880;-61
2022/10/15 03:01:20;;;;;;;;;;;;;;;16.87;84.27;99525.59;5026980;28;1961;-62
2022/10/15 03:03:45;;;;;;;;;;;;;;;16.87;83.93;99539.41;5022385;28;1856;-62
2022/10/15 03:06:10;;;;;;;;;;;;;;;16.86;83.66;99540.56;5016422;28;2120;-62
2022/10/15 03:08:36;;;;;;;;;;;;;;;16.86;83.53;99537.81;5008839;28;2360;-62
2022/10/15 03:11:01;;;;;;;;;;;;;;;16.85;84.32;99536.19;5020519;28;2091;-62
2022/10/15 03:13:27;;;;;;;;;;;;;;;16.85;84.56;99544.47;5021921;28;2243;-63
2022/10/15 03:15:52;;;;;;;;;;;;;;;16.85;84.70;99543.66;5014036;28;1803;-60
2022/10/15 03:18:17;;;;;;;;;;;;;;;16.84;84.46;99540.09;5014871;28;2117;-60
2022/10/15 03:20:42;;;;;;;;;;;;;;;16.84;84.69;99540.09;5019901;23;2137;-59
2022/10/15 03:23:08;;;;;;;;;;;;;;;16.83;83.76;99543.22;5018245;28;1972;-60
2022/10/15 03:25:33;;;;;;;;;;;;;;;16.83;83.76;99543.22;5024864;28;1741;-59
2022/10/15 03:27:58;;;;;;;;;;;;;;;16.84;84.34;99545.63;5017682;28;1702;-60
2022/10/15 03:30:23;;;;;;;;;;;;;;;16.84;84.51;99553.13;5014307;28;2105;-59
2022/10/15 03:32:48;;;;;;;;;;;;;;;16.83;83.85;99546.81;5016529;28;1928;-60
2022/10/15 03:35:13;;;;;;;;;;;;;;;16.84;84.45;99551.16;5019637;28;1795;-58
2022/10/15 03:37:39;;;;;;;;;;;;;;;16.85;83.94;99555.53;5016052;28;1690;-59
2022/10/15 03:40:04;;;;;;;;;;;;;;;16.86;84.81;99559.09;5016256;28;2059;-59
2022/10/15 03:42:29;;;;;;;;;;;;;;;16.85;84.41;99551.97;5014669;28;1978;-58
2022/10/15 03:44:54;;;;;;;;;;;;;;;16.85;83.93;99557.50;5016033;28;1605;-60
2022/10/15 03:47:20;;;;;;;;;;;;;;;16.83;83.82;99546.81;5014469;28;1665;-58
2022/10/15 03:49:45;;;;;;;;;;;;;;;16.84;83.87;99550.38;5018187;28;1928;-59
2022/10/15 03:52:10;;;;;;;;;;;;;;;16.84;84.47;99550.38;5014351;28;2032;-61
2022/10/15 03:54:35;;;;;;;;;;;;;;;16.84;83.70;99545.63;5009039;28;2113;-59
2022/10/15 03:57:00;;;;;;;;;;;;;;;16.83;84.14;99551.53;5024282;28;1788;-60
2022/10/15 03:59:25;;;;;;;;;;;;;;;16.84;84.22;99550.38;5015103;28;2087;-62
2022/10/15 04:01:50;;;;;;;;;;;;;;;16.84;84.65;99550.38;5014220;28;1974;-59
2022/10/15 04:04:16;;;;;;;;;;;;;;;16.84;84.26;99550.38;5014772;28;1884;-58
2022/10/15 04:06:41;;;;;;;;;;;;;;;16.83;84.65;99563.38;5018557;28;1626;-60
2022/10/15 04:09:06;;;;;;;;;;;;;;;16.82;84.94;99547.94;5018269;28;1882;-59
2022/10/15 04:11:31;;;;;;;;;;;;;;;16.84;84.45;99548.38;5013736;28;2523;-60
2022/10/15 04:13:57;;;;;;;;;;;;;;;16.84;83.90;99555.91;5010098;28;1666;-59
2022/10/15 04:16:22;;;;;;;;;;;;;;;16.84;84.67;99556.69;5013673;28;1645;-58
2022/10/15 04:18:47;;;;;;;;;;;;;;;16.84;84.79;99555.91;5019382;28;1639;-59
2022/10/15 04:21:12;;;;;;;;;;;;;;;16.84;84.04;99562.22;5011981;28;1967;-59
2022/10/15 04:23:38;;;;;;;;;;;;;;;16.84;84.39;99559.44;5014429;28;2356;-60
2022/10/15 04:26:03;;;;;;;;;;;;;;;16.83;84.17;99565.34;5013486;28;1739;-61
2022/10/15 04:28:28;;;;;;;;;;;;;;;16.83;84.04;99557.84;5016032;28;1775;-58
2022/10/15 04:30:57;;;;;;;;;;;;;;;16.82;84.76;99556.25;5019281;28;1871;-60
2022/10/15 04:33:22;;;;;;;;;;;;;;;16.84;84.47;99559.44;5015036;28;1710;-62
2022/10/15 04:35:56;;;;;;;;;;;;;;;16.84;84.14;99553.13;5011828;28;2184;-60
2022/10/15 04:38:21;;;;;;;;;;;;;;;16.84;84.77;99558.66;5019517;28;1891;-59
2022/10/15 04:40:46;;;;;;;;;;;;;;;16.82;84.85;99556.25;5011814;28;1853;-59
2022/10/15 04:43:11;;;;;;;;;;;;;;;16.84;84.22;99562.22;5012656;28;1983;-61
2022/10/15 04:45:36;;;;;;;;;;;;;;;16.84;84.50;99561.44;5015016;28;1676;-59
2022/10/15 04:48:01;;;;;;;;;;;;;;;16.84;84.14;99556.69;5013281;28;1660;-61
2022/10/15 04:50:27;;;;;;;;;;;;;;;16.84;84.99;99566.97;5012331;28;1876;-59
2022/10/15 04:52:52;;;;;;;;;;;;;;;16.84;85.11;99566.97;5015592;28;1844;-60
2022/10/15 04:55:17;;;;;;;;;;;;;;;16.84;84.15;99559.44;5012479;28;2040;-59
2022/10/15 04:57:42;;;;;;;;;;;;;;;16.82;84.97;99567.28;5019346;28;1779;-59
2022/10/15 05:00:07;;;;;;;;;;;;;;;16.82;84.93;99561.78;5011547;28;2311;-58
2022/10/15 05:02:33;;;;;;;;;;;;;;;16.82;84.18;99559.00;5013148;28;1875;-58
2022/10/15 05:04:58;;;;;;;;;;;;;;;16.83;84.17;99557.84;5012734;28;1649;-59
2022/10/15 05:07:23;;;;;;;;;;;;;;;16.82;85.00;99558.19;5015313;28;1825;-59
2022/10/15 05:09:48;;;;;;;;;;;;;;;16.82;84.28;99559.00;5018137;28;1880;-59
2022/10/15 05:12:13;;;;;;;;;;;;;;;16.83;84.97;99551.53;5017964;28;1733;-61
2022/10/15 05:14:38;;;;;;;;;;;;;;;16.83;84.23;99557.03;5012737;28;1795;-59
2022/10/15 05:17:04;;;;;;;;;;;;;;;16.82;85.17;99556.25;5011648;28;1843;-60
2022/10/15 05:19:29;;;;;;;;;;;;;;;16.84;85.03;99555.91;5013966;28;1949;-59
2022/10/15 05:21:54;;;;;;;;;;;;;;;16.83;85.26;99557.03;5012762;28;1894;-59
2022/10/15 05:24:19;;;;;;;;;;;;;;;16.83;84.13;99551.53;5015319;28;1716;-59
2022/10/15 05:26:44;;;;;;;;;;;;;;;16.83;85.11;99554.28;5013257;28;1611;-59
2022/10/15 05:29:09;;;;;;;;;;;;;;;16.83;84.75;99557.03;5008449;28;2035;-59
2022/10/15 05:31:35;;;;;;;;;;;;;;;16.83;84.38;99557.03;5014044;28;1679;-62
2022/10/15 05:34:04;;;;;;;;;;;;;;;16.81;84.59;99562.91;5014345;28;1807;-58
2022/10/15 05:36:29;;;;;;;;;;;;;;;16.82;84.59;99569.25;5015792;28;1882;-59
2022/10/15 05:38:56;;;;;;;;;;;;;;;16.81;84.60;99567.63;5011035;28;1955;-60
2022/10/15 05:41:22;;;;;;;;;;;;;;;16.82;84.47;99580.31;5013240;28;1890;-58
2022/10/15 05:43:48;;;;;;;;;;;;;;;16.81;85.51;99581.44;5012407;28;1867;-60
2022/10/15 05:46:13;;;;;;;;;;;;;;;16.80;84.92;99577.88;5008279;28;1745;-60
2022/10/15 05:48:38;;;;;;;;;;;;;;;16.81;85.09;99581.44;5012110;28;1874;-59
2022/10/15 05:51:04;;;;;;;;;;;;;;;16.81;85.03;99584.22;5015143;28;1701;-59
2022/10/15 05:53:30;;;;;;;;;;;;;;;16.79;84.48;99592.03;5016973;28;2258;-58
2022/10/15 05:55:57;;;;;;;;;;;;;;;16.81;85.08;99593.31;5017129;28;1756;-59
2022/10/15 05:58:22;;;;;;;;;;;;;;;16.81;84.54;99596.09;5011505;28;1886;-59
2022/10/15 06:00:57;;;;;;;;;;;;;;;16.81;85.17;99596.09;5012080;28;1781;-59
2022/10/15 06:03:22;;;;;;;;;;;;;;;16.81;84.88;99600.81;5009618;28;1898;-59
2022/10/15 06:05:47;;;;;;;;;;;;;;;16.81;85.09;99595.28;5012207;28;1585;-61
2022/10/15 06:08:13;;;;;;;;;;;;;;;16.80;84.57;99596.41;5011677;28;1661;-59
2022/10/15 06:10:38;;;;;;;;;;;;;;;16.79;84.58;99601.13;5015685;28;1804;-58
2022/10/15 06:13:04;;;;;;;;;;;;;;;16.79;85.40;99601.13;5015521;28;1687;-60
2022/10/15 06:15:30;;;;;;;;;;;;;;;16.78;85.19;99596.75;5011861;28;1704;-60
2022/10/15 06:17:55;;;;;;;;;;;;;;;16.78;84.75;99605.03;5018393;28;1762;-58
2022/10/15 06:20:20;;;;;;;;;;;;;;;16.78;85.48;99612.53;5017649;28;1828;-59
2022/10/15 06:22:45;;;;;;;;;;;;;;;16.78;85.26;99612.53;5019896;28;2016;-58
2022/10/15 06:25:10;;;;;;;;;;;;;;;16.78;84.59;99613.34;5015297;28;1983;-58
2022/10/15 06:27:35;;;;;;;;;;;;;;;16.78;85.63;99602.28;5017684;28;1609;-58
2022/10/15 06:30:01;;;;;;;;;;;;;;;16.79;85.03;99611.38;5021885;28;2057;-58
2022/10/15 06:32:26;;;;;;;;;;;;;;;16.79;85.02;99605.84;5019168;28;1863;-60
2022/10/15 06:34:51;;;;;;;;;;;;;;;16.78;84.89;99616.09;5015190;28;1946;-58
2022/10/15 06:37:16;;;;;;;;;;;;;;;16.78;85.24;99616.09;5021489;28;1654;-59
2022/10/15 06:39:42;;;;;;;;;;;;;;;16.78;84.86;99612.53;5013887;28;2001;-58
2022/10/15 06:42:07;;;;;;;;;;;;;;;16.78;84.89;99616.09;5022325;28;1951;-58
2022/10/15 06:44:32;;;;;;;;;;;;;;;16.77;85.64;99614.47;5011007;28;1635;-58
2022/10/15 06:46:57;;;;;;;;;;;;;;;16.77;85.16;99620.00;5019761;28;1824;-57
2022/10/15 06:49:23;;;;;;;;;;;;;;;16.78;84.74;99623.59;5013953;28;1891;-59
2022/10/15 06:51:48;;;;;;;;;;;;;;;16.79;85.34;99631.53;5015732;28;1639;-58
2022/10/15 06:54:13;;;;;;;;;;;;;;;16.82;85.10;99630.06;5010587;28;1649;-59
2022/10/15 06:56:38;;;;;;;;;;;;;;;16.86;84.29;99629.00;5019909;28;1637;-57
2022/10/15 06:59:04;;;;;;;;;;;;;;;16.87;84.62;99630.63;5005896;28;2055;-59
2022/10/15 07:01:29;;;;;;;;;;;;;;;16.87;85.17;99627.88;5018652;28;1890;-59
2022/10/15 07:03:54;;;;;;;;;;;;;;;16.86;85.29;99629.00;5016173;28;1030;-60
2022/10/15 07:06:19;;;;;;;;;;;;;;;16.85;85.09;99630.16;5018783;28;1715;-59
2022/10/15 07:08:44;;;;;;;;;;;;;;;16.85;85.25;99643.97;5015976;28;1843;-60
2022/10/15 07:11:10;;;;;;;;;;;;;;;16.85;85.49;99640.41;5018040;28;1839;-58
2022/10/15 07:13:35;;;;;;;;;;;;;;;16.84;84.82;99647.88;5023163;28;1866;-60
2022/10/15 07:16:04;;;;;;;;;;;;;;;16.84;85.55;99649.88;5021423;28;1716;-58
2022/10/15 07:18:30;;;;;;;;;;;;;;;16.84;84.90;99653.41;5015796;28;1561;-59
2022/10/15 07:20:55;;;;;;;;;;;;;;;16.84;84.98;99664.47;5021552;28;2324;-58
2022/10/15 07:23:20;;;;;;;;;;;;;;;16.85;84.89;99657.81;5019214;28;1902;-58
2022/10/15 07:25:46;;;;;;;;;;;;;;;16.84;85.04;99663.69;5018657;28;1709;-59
2022/10/15 07:28:11;;;;;;;;;;;;;;;16.84;85.75;99656.19;5015123;28;1626;-60
2022/10/15 07:30:36;;;;;;;;;;;;;;;16.84;82.13;99658.16;5014218;28;1921;-59
2022/10/15 07:33:01;;;;;;;;;;;;;;;16.93;84.02;99664.38;5002568;28;1800;-60
2022/10/15 07:35:27;;;;;;;;;;;;;;;16.99;82.94;99669.38;5022134;28;1719;-60
2022/10/15 07:37:52;;;;;;;;;;;;;;;17.05;83.08;99664.41;5013914;28;1885;-61
2022/10/15 07:40:17;;;;;;;;;;;;;;;17.06;82.34;99665.22;5022165;28;1869;-59
2022/10/15 07:42:43;;;;;;;;;;;;;;;17.06;83.75;99667.97;5015470;28;1903;-59
2022/10/15 07:45:08;;;;;;;;;;;;;;;17.06;82.94;99667.97;5014478;28;1761;-60
2022/10/15 07:47:33;;;;;;;;;;;;;;;16.98;80.89;99672.47;5025034;28;1870;-59
2022/10/15 07:49:58;;;;;;;;;;;;;;;16.90;83.34;99682.47;5013916;28;1693;-58
2022/10/15 07:52:24;;;;;;;;;;;;;;;16.82;83.43;99677.03;5011166;28;1599;-59
2022/10/15 07:54:49;;;;;;;;;;;;;;;16.75;84.26;99677.59;5018295;28;1600;-59
2022/10/15 07:57:15;;;;;;;;;;;;;;;16.44;84.70;99646.84;5018076;28;1974;-59
2022/10/15 07:59:40;;;;;;;;;;;;;;;16.67;84.71;99692.31;5014787;28;1878;-58
2022/10/15 08:02:05;;;;;;;;;;;;;;;16.66;85.53;99695.41;5007503;28;1969;-59
2022/10/15 08:04:33;;;;;;;;;;;;;;;16.63;85.31;99699.66;5014380;28;1803;-59
2022/10/15 08:06:58;;;;;;;;;;;;;;;16.62;85.08;99690.56;5015592;28;1872;-59
2022/10/15 08:09:23;;;;;;;;;;;;;;;16.61;85.32;99685.38;5018653;28;1546;-59
2022/10/15 08:11:48;;;;;;;;;;;;;;;16.60;85.99;99692.00;5018832;28;1860;-61
2022/10/15 08:14:13;;;;;;;;;;;;;;;16.57;85.79;99682.47;5020040;28;1577;-58
2022/10/15 08:16:39;;;;;;;;;;;;;;;16.58;85.56;99688.81;5003390;28;2033;-60
2022/10/15 08:19:04;;;;;;;;;;;;;;;16.59;85.44;99687.63;5016223;28;2340;-59
2022/10/15 08:21:29;;;;;;;;;;;;;;;16.75;85.21;99682.31;5017243;28;1964;-60
2022/10/15 08:23:54;;;;;;;;;;;;;;;16.91;85.07;99675.81;5016640;28;1995;-59
2022/10/15 08:26:19;;;;;;;;;;;;;;;16.93;84.93;99676.25;5014814;28;1942;-59
2022/10/15 08:28:45;;;;;;;;;;;;;;;16.91;84.89;99675.00;5017926;28;1711;-58
2022/10/15 08:31:10;;;;;;;;;;;;;;;16.88;84.01;99670.13;5014979;28;1775;-59
2022/10/15 08:33:36;;;;;;;;;;;;;;;16.87;84.58;99676.81;5009898;28;1714;-60
2022/10/15 08:36:03;;;;;;;;;;;;;;;16.86;84.02;99673.25;5015701;28;1781;-61
2022/10/15 08:38:29;;;;;;;;;;;;;;;16.85;84.92;99673.56;5014828;28;1888;-59
2022/10/15 08:40:55;;;;;;;;;;;;;;;16.84;84.88;99677.50;5014283;28;1674;-60
2022/10/15 08:43:33;;;;;;;;;;;;;;;16.84;84.43;99674.75;5017304;28;1969;-60
2022/10/15 08:46:00;;;;;;;;;;;;;;;16.83;84.58;99668.41;5006809;28;1818;-59
2022/10/15 08:48:31;;;;;;;;;;;;;;;16.83;84.28;99679.47;5017447;28;1676;-60
2022/10/15 08:51:00;;;;;;;;;;;;;;;16.82;83.92;99669.56;5021317;28;1904;-60
2022/10/15 08:53:27;;;;;;;;;;;;;;;16.82;84.39;99675.09;5017455;28;1686;-60
2022/10/15 08:55:54;;;;;;;;;;;;;;;16.82;84.62;99677.84;5012907;28;2106;-59
2022/10/15 08:58:37;;;;;;;;;;;;;;;16.82;84.54;99675.09;5017497;28;2430;-59
2022/10/15 09:01:05;;;;;;;;;;;;;;;16.81;84.30;99679.00;5016217;28;1826;-59
2022/10/15 09:03:38;;;;;;;;;;;;;;;16.80;84.02;99671.84;5013478;28;1971;-59
2022/10/15 09:06:11;;;;;;;;;;;;;;;16.80;83.88;99673.81;5014041;28;1747;-59
2022/10/15 09:08:55;;;;;;;;;;;;;;;16.79;83.94;99673.00;5015064;28;1722;-59
2022/10/15 09:11:39;;;;;;;;;;;;;;;16.85;83.81;99682.69;5015488;28;1720;-59
2022/10/15 09:14:07;;;;;;;;;;;;;;;16.93;83.48;99679.00;5011345;28;2210;-58
2022/10/15 09:16:36;;;;;;;;;;;;;;;17.05;82.67;99680.19;5010960;28;1774;-59
2022/10/15 09:19:03;;;;;;;;;;;;;;;17.19;82.74;99673.16;5013730;28;1740;-59
2022/10/15 09:21:29;;;;;;;;;;;;;;;17.33;82.51;99676.41;5011894;28;2013;-60
2022/10/15 09:23:59;;;;;;;;;;;;;;;17.51;82.05;99676.19;5015387;28;1788;-61
2022/10/15 09:26:27;;;;;;;;;;;;;;;17.68;82.51;99668.47;5018377;28;1668;-59
2022/10/15 09:28:52;;;;;;;;;;;;;;;17.80;82.79;99664.06;5009128;28;1756;-61
2022/10/15 09:31:20;;;;;;;;;;;;;;;17.88;82.73;99669.47;5018370;28;1577;-61
2022/10/15 09:33:55;;;;;;;;;;;;;;;17.97;82.16;99659.06;5007556;28;1651;-61
2022/10/15 09:36:38;;;;;;;;;;;;;;;18.04;82.61;99661.22;5017006;28;1997;-61
2022/10/15 09:39:17;;;;;;;;;;;;;;;18.11;82.85;99664.22;5012760;28;1928;-61
2022/10/15 09:41:48;;;;;;;;;;;;;;;18.18;82.56;99658.09;5014254;28;1906;-61
2022/10/15 09:44:14;;;;;;;;;;;;;;;18.24;82.08;99668.56;5016484;28;1796;-60
2022/10/15 09:46:46;;;;;;;;;;;;;;;18.28;82.14;99665.91;5002235;28;1915;-60
2022/10/15 09:49:17;;;;;;;;;;;;;;;17.35;81.30;99526.72;5012589;28;1943;-61
2022/10/15 09:51:47;;;;;;;;;;;;;;;18.33;81.35;99660.91;5020221;28;1683;-61
2022/10/15 09:54:32;;;;;;;;;;;;;;;18.36;81.33;99651.91;5013156;28;1673;-60
2022/10/15 09:56:57;;;;;;;;;;;;;;;18.36;81.33;99654.69;5013403;28;1926;-61
2022/10/15 09:59:24;;;;;;;;;;;;;;;18.36;81.71;99657.44;5015300;28;2157;-61
2022/10/15 10:02:08;;;;;;;;;;;;;;;18.36;81.76;99662.19;5010191;28;1998;-61
2022/10/15 10:04:33;;;;;;;;;;;;;;;18.36;81.77;99665.75;5015218;28;2200;-61
2022/10/15 10:07:06;;;;;;;;;;;;;;;18.36;81.63;99663.00;5012848;28;1574;-61
2022/10/15 10:09:31;;;;;;;;;;;;;;;18.37;82.39;99672.09;5014073;28;1892;-61
2022/10/15 10:12:00;;;;;;;;;;;;;;;18.37;82.31;99661.03;5011621;28;2131;-62
2022/10/15 10:14:31;;;;;;;;;;;;;;;18.36;82.24;99659.41;5013101;28;1561;-61
2022/10/15 10:17:03;;;;;;;;;;;;;;;18.35;83.05;99658.59;5019823;28;2778;-61
2022/10/15 10:19:29;;;;;;;;;;;;;;;18.36;81.95;99659.41;5006192;28;1893;-61
2022/10/15 10:22:04;;;;;;;;;;;;;;;18.36;82.16;99651.91;5016587;28;1993;-60
2022/10/15 10:24:33;;;;;;;;;;;;;;;18.34;82.50;99648.69;5014111;28;1917;-60
2022/10/15 10:26:58;;;;;;;;;;;;;;;18.34;82.86;99650.63;5012700;28;2726;-61
2022/10/15 10:29:24;;;;;;;;;;;;;;;18.04;81.32;99650.16;4997042;28;1679;-62
2022/10/15 10:31:51;;;;;;;;;;;;;;;18.08;81.22;99642.78;5013257;28;1897;-61
2022/10/15 10:34:18;;;;;;;;;;;;;;;18.13;81.03;99651.63;5017833;28;2048;-60
2022/10/15 10:36:47;;;;;;;;;;;;;;;17.90;79.31;99658.03;5017489;28;1851;-61
2022/10/15 10:39:20;;;;;;;;;;;;;;;17.81;79.33;99662.91;5022225;28;1854;-60
2022/10/15 10:41:52;;;;;;;;;;;;;;;17.60;79.03;99669.38;5014006;28;1894;-61
2022/10/15 10:44:19;;;;;;;;;;;;;;;17.50;78.58;99674.56;5015438;28;1776;-61
2022/10/15 10:46:59;;;;;;;;;;;;;;;17.42;80.30;99670.78;5016603;28;1820;-61
2022/10/15 10:49:36;;;;;;;;;;;;;;;17.43;79.44;99675.16;5011522;28;1975;-61
2022/10/15 10:52:01;;;;;;;;;;;;;;;17.60;79.53;99663.84;5005449;28;1682;-61
2022/10/15 10:54:27;;;;;;;;;;;;;;;17.75;79.20;99662.34;5020999;28;1751;-60
2022/10/15 10:56:54;;;;;;;;;;;;;;;17.81;79.44;99655.41;5016628;28;2044;-61
2022/10/15 10:59:42;;;;;;;;;;;;;;;17.84;80.49;99663.03;5015960;28;1750;-61
2022/10/15 11:02:11;;;;;;;;;;;;;;;17.86;80.22;99660.72;5016820;28;2199;-62
2022/10/15 11:04:37;;;;;;;;;;;;;;;17.86;80.05;99657.97;5015515;28;2182;-61
2022/10/15 11:07:02;;;;;;;;;;;;;;;17.86;79.21;99638.56;5016299;28;2284;-61
2022/10/15 11:09:51;;;;;;;;;;;;;;;17.85;80.35;99642.50;5018718;28;1979;-61
2022/10/15 11:12:35;;;;;;;;;;;;;;;17.84;80.11;99637.31;5016357;28;1637;-61
2022/10/15 11:15:24;;;;;;;;;;;;;;;17.82;80.50;99634.88;5017643;28;1933;-61
2022/10/15 11:18:19;;;;;;;;;;;;;;;17.81;79.57;99624.16;5014682;28;1795;-61
2022/10/15 11:21:02;;;;;;;;;;;;;;;17.79;80.67;99618.97;5015574;28;1846;-61
2022/10/15 11:23:49;;;;;;;;;;;;;;;17.78;79.95;99617.34;5032756;28;1909;-60
2022/10/15 11:26:33;;;;;;;;;;;;;;;17.76;80.35;99598.34;5014482;28;2048;-62
2022/10/15 11:29:17;;;;;;;;;;;;;;;17.76;79.46;99609.41;5018652;28;1835;-59
2022/10/15 11:32:03;;;;;;;;;;;;;;;17.76;79.67;99605.84;5016898;28;1818;-61
2022/10/15 11:34:35;;;;;;;;;;;;;;;17.82;79.87;99603.63;5014536;28;1800;-62
2022/10/15 11:37:18;;;;;;;;;;;;;;;17.87;80.75;99611.66;5013665;28;2183;-61
2022/10/15 11:40:14;;;;;;;;;;;;;;;17.92;80.58;99612.25;5014836;28;1862;-59
2022/10/15 11:42:52;;;;;;;;;;;;;;;17.94;80.66;99603.59;5008857;28;1949;-61
2022/10/15 11:45:17;;;;;;;;;;;;;;;17.94;81.00;99600.84;5007310;28;1909;-62
2022/10/15 11:48:00;;;;;;;;;;;;;;;17.96;79.78;99601.25;5017168;28;1873;-60
2022/10/15 11:50:27;;;;;;;;;;;;;;;17.98;81.32;99593.41;5015784;28;1894;-61
2022/10/15 11:53:01;;;;;;;;;;;;;;;17.98;79.97;99601.72;5016098;28;2086;-61
2022/10/15 11:55:45;;;;;;;;;;;;;;;17.96;80.94;99595.72;5022610;28;1814;-61
2022/10/15 11:58:13;;;;;;;;;;;;;;;17.99;80.02;99600.56;5011408;28;1948;-60
2022/10/15 12:00:43;;;;;;;;;;;;;;;18.00;81.39;99591.09;5021500;28;1646;-61
2022/10/15 12:03:26;;;;;;;;;;;;;;;18.00;81.07;99599.41;5021311;28;1979;-60
2022/10/15 12:05:51;;;;;;;;;;;;;;;17.81;80.98;99593.69;5008413;28;1820;-60
2022/10/15 12:08:16;;;;;;;;;;;;;;;17.87;81.24;99587.56;5017334;28;1933;-61
2022/10/15 12:10:51;;;;;;;;;;;;;;;17.93;80.28;99588.94;5021425;28;1679;-60
2022/10/15 12:13:35;;;;;;;;;;;;;;;17.98;81.03;99587.88;5019236;28;1512;-61
2022/10/15 12:16:00;;;;;;;;;;;;;;;18.01;80.75;99582.44;5023876;28;1868;-62
2022/10/15 12:18:34;;;;;;;;;;;;;;;18.04;80.06;99589.22;5010231;28;1884;-61
2022/10/15 12:21:00;;;;;;;;;;;;;;;18.05;81.26;99579.78;5012452;28;1940;-61
2022/10/15 12:23:37;;;;;;;;;;;;;;;18.02;80.70;99574.97;5018916;28;2088;-61
2022/10/15 12:26:22;;;;;;;;;;;;;;;18.02;81.14;99569.41;5019882;28;1958;-61
2022/10/15 12:28:49;;;;;;;;;;;;;;;18.07;81.32;99569.97;5021490;28;1797;-61
2022/10/15 12:31:14;;;;;;;;;;;;;;;18.15;81.20;99573.72;5018685;28;1622;-61
2022/10/15 12:33:50;;;;;;;;;;;;;;;18.16;80.93;99567.03;5020384;28;1801;-60
2022/10/15 12:36:18;;;;;;;;;;;;;;;18.15;81.30;99551.56;5014575;28;1927;-61
2022/10/15 12:38:51;;;;;;;;;;;;;;;18.20;80.08;99553.28;5015597;28;1832;-62
2022/10/15 12:41:17;;;;;;;;;;;;;;;18.21;80.04;99550.16;5016838;28;1503;-61
2022/10/15 12:43:44;;;;;;;;;;;;;;;18.23;80.85;99567.22;5013711;28;1961;-61
2022/10/15 12:46:10;;;;;;;;;;;;;;;18.26;80.42;99560.19;5016795;28;1727;-59
2022/10/15 12:48:35;;;;;;;;;;;;;;;18.29;81.02;99560.25;5014910;28;1562;-62
2022/10/15 12:51:15;;;;;;;;;;;;;;;18.29;80.15;99549.19;5014906;28;1816;-61
2022/10/15 12:53:41;;;;;;;;;;;;;;;18.29;81.14;99546.41;5012670;28;1606;-61
2022/10/15 12:56:12;;;;;;;;;;;;;;;18.31;80.38;99541.31;5019235;28;1696;-60
2022/10/15 12:58:48;;;;;;;;;;;;;;;18.32;79.78;99542.94;5019669;28;2072;-62
2022/10/15 13:01:13;;;;;;;;;;;;;;;18.10;79.20;99544.34;5017768;28;1876;-61
2022/10/15 13:03:47;;;;;;;;;;;;;;;17.78;78.91;99542.59;5011817;28;1922;-61